Time;durP1;ratioP1;P1;durP2;ratioP2;P2;SDS_P1;SDS_P2;PMS_P1;PMS_P2;Temp;Humidity;BMP_temperature;BMP_pressure;BME280_temperature;BME280_humidity;BME280_pressure;Samples;Min_cycle;Max_cycle;Signal;HPM_P1;HPM_P2
2021/05/15 00:00:28;;;;;;;29.10;22.20;;;;;;;13.11;79.60;97926.23;1717215;82;21046;-71
2021/05/15 00:02:56;;;;;;;27.87;20.95;;;;;;;13.08;79.66;97923.78;1690953;83;21108;-72
2021/05/15 00:05:22;;;;;;;25.62;21.12;;;;;;;13.08;79.60;97932.56;1704517;83;21087;-73
2021/05/15 00:07:49;;;;;;;26.07;21.48;;;;;;;13.03;79.56;97927.63;1701826;83;21091;-69
2021/05/15 00:10:14;;;;;;;25.10;20.55;;;;;;;13.01;79.60;97933.53;1706251;83;21051;-70
2021/05/15 00:12:40;;;;;;;25.75;20.62;;;;;;;13.01;79.55;97931.38;1700315;83;21154;-72
2021/05/15 00:15:09;;;;;;;26.80;21.00;;;;;;;12.98;79.50;97931.64;1681000;85;21171;-70
2021/05/15 00:17:34;;;;;;;23.98;20.50;;;;;;;12.98;79.49;97941.18;1677752;85;21402;-72
2021/05/15 00:20:00;;;;;;;24.92;19.98;;;;;;;12.97;79.40;97943.75;1681641;84;21071;-70
2021/05/15 00:22:26;;;;;;;25.90;20.48;;;;;;;12.95;79.36;97946.14;1638752;86;21156;-71
2021/05/15 00:24:52;;;;;;;26.48;21.30;;;;;;;12.93;79.37;97949.13;1696255;84;21086;-71
2021/05/15 00:27:18;;;;;;;27.37;21.00;;;;;;;12.91;79.39;97949.57;1691032;84;21394;-70
2021/05/15 00:29:43;;;;;;;26.93;20.23;;;;;;;12.87;79.37;97947.52;1692729;84;21512;-71
2021/05/15 00:32:09;;;;;;;24.05;20.65;;;;;;;12.87;79.44;97952.37;1675490;84;21613;-72
2021/05/15 00:34:35;;;;;;;25.52;19.80;;;;;;;12.84;79.31;97947.03;1726224;83;21024;-69
2021/05/15 00:37:00;;;;;;;26.35;19.90;;;;;;;12.81;79.29;97953.34;1723024;83;21081;-71
2021/05/15 00:39:26;;;;;;;24.67;20.35;;;;;;;12.78;79.26;97959.05;1722872;82;21087;-70
2021/05/15 00:41:52;;;;;;;25.35;19.98;;;;;;;12.77;79.31;97951.32;1722703;82;21147;-70
2021/05/15 00:46:52;;;;;;;24.65;20.05;;;;;;;12.75;79.18;97959.15;1719359;82;21079;-72
2021/05/15 00:49:17;;;;;;;21.35;18.02;;;;;;;12.69;79.20;97953.46;1723521;82;21068;-70
2021/05/15 00:51:43;;;;;;;23.98;19.32;;;;;;;12.68;79.04;97956.60;1720699;82;21076;-71
2021/05/15 00:54:10;;;;;;;20.85;18.17;;;;;;;12.65;79.03;97958.22;1723885;83;21048;-69
2021/05/15 00:56:36;;;;;;;18.32;16.37;;;;;;;12.66;78.97;97963.25;1713743;83;21587;-73
2021/05/15 00:59:02;;;;;;;20.35;17.65;;;;;;;12.67;78.74;97961.29;1724367;82;21055;-72
2021/05/15 01:01:28;;;;;;;20.95;16.87;;;;;;;12.65;78.62;97958.98;1733329;81;21083;-70
2021/05/15 01:03:54;;;;;;;19.23;15.68;;;;;;;12.64;78.52;97962.15;1743208;81;21218;-70
2021/05/15 01:06:19;;;;;;;18.02;15.25;;;;;;;12.61;78.37;97963.01;1741606;81;21552;-69
2021/05/15 01:08:46;;;;;;;17.10;14.68;;;;;;;12.55;78.18;97970.94;1742982;81;21359;-73
2021/05/15 01:11:17;;;;;;;17.32;14.70;;;;;;;12.52;78.06;97966.34;1724505;81;21045;-72
2021/05/15 01:13:57;;;;;;;17.32;14.40;;;;;;;12.49;78.07;97971.86;1740673;81;21142;-69
2021/05/15 01:16:23;;;;;;;16.67;14.83;;;;;;;12.45;77.94;97978.77;1737469;81;21723;-71
2021/05/15 01:18:50;;;;;;;18.02;14.55;;;;;;;12.38;78.06;97975.61;1742004;81;21473;-69
2021/05/15 01:21:15;;;;;;;16.80;14.68;;;;;;;12.36;78.05;97973.93;1740516;81;21063;-70
2021/05/15 01:23:41;;;;;;;17.20;14.47;;;;;;;12.36;78.12;97973.93;1740753;81;21621;-71
2021/05/15 01:26:19;;;;;;;17.73;15.35;;;;;;;12.37;78.11;97985.58;1742411;81;21091;-71
2021/05/15 01:28:46;;;;;;;17.17;15.35;;;;;;;12.34;78.15;97983.11;1735706;81;21131;-70
2021/05/15 01:31:12;;;;;;;19.07;15.13;;;;;;;12.31;78.14;97987.29;1738545;81;21333;-69
2021/05/15 01:33:38;;;;;;;18.10;14.83;;;;;;;12.26;78.17;97997.33;1728513;81;21112;-69
2021/05/15 01:36:06;;;;;;;18.67;15.48;;;;;;;12.23;78.20;97992.73;1741026;81;21032;-72
2021/05/15 01:38:33;;;;;;;17.98;15.93;;;;;;;12.19;78.30;97992.23;1732938;81;21166;-71
2021/05/15 01:41:03;;;;;;;18.25;16.12;;;;;;;12.16;78.43;97984.88;1742403;81;21016;-71
2021/05/15 01:43:28;;;;;;;20.32;16.80;;;;;;;12.14;78.51;97998.75;1741961;81;21075;-70
2021/05/15 01:45:54;;;;;;;21.07;17.37;;;;;;;12.10;78.56;98001.56;1741977;81;21047;-72
2021/05/15 01:48:20;;;;;;;20.92;16.40;;;;;;;12.06;78.63;97998.73;1738451;81;21099;-71
2021/05/15 01:51:06;;;;;;;22.07;17.70;;;;;;;12.01;78.72;97999.27;1739329;81;21199;-70
2021/05/15 01:53:33;;;;;;;21.50;17.27;;;;;;;12.00;78.75;97999.84;1742789;81;21652;-68
2021/05/15 01:56:00;;;;;;;23.83;19.32;;;;;;;11.92;78.84;98007.98;1740120;81;21060;-68
2021/05/15 01:58:26;;;;;;;23.33;19.67;;;;;;;11.88;78.94;98002.64;1740251;81;21675;-70
2021/05/15 02:00:52;;;;;;;23.98;19.32;;;;;;;11.84;79.15;98006.58;1740060;81;21345;-68
2021/05/15 02:03:18;;;;;;;25.17;20.00;;;;;;;11.80;79.26;98006.67;1749776;81;21143;-69
2021/05/15 02:05:43;;;;;;;24.90;20.35;;;;;;;11.75;79.37;98009.28;1740901;81;21032;-69
2021/05/15 02:08:11;;;;;;;28.42;20.90;;;;;;;11.69;79.48;98011.58;1748202;81;21147;-70
2021/05/15 02:10:37;;;;;;;27.48;21.35;;;;;;;11.63;79.68;98011.91;1746777;81;21536;-69
2021/05/15 02:13:03;;;;;;;30.45;22.13;;;;;;;11.56;79.78;98014.92;1741168;81;21087;-72
2021/05/15 02:15:28;;;;;;;32.65;22.65;;;;;;;11.48;79.98;98018.21;1747800;81;21160;-69
2021/05/15 02:17:57;;;;;;;33.92;24.27;;;;;;;11.40;80.15;98014.10;1742105;81;21583;-71
2021/05/15 02:20:22;;;;;;;32.70;22.93;;;;;;;11.29;80.29;98017.03;1740408;81;21055;-75
2021/05/15 02:22:48;;;;;;;39.13;25.95;;;;;;;11.18;80.42;98019.19;1741335;81;21174;-70
2021/05/15 02:25:14;;;;;;;45.50;26.75;;;;;;;11.04;80.64;98007.40;1745354;81;21151;-70
2021/05/15 02:27:40;;;;;;;42.35;26.82;;;;;;;10.91;80.92;98015.98;1746453;81;21623;-72
2021/05/15 02:30:07;;;;;;;51.45;27.40;;;;;;;10.79;81.13;98013.88;1745094;81;21087;-71
2021/05/15 02:32:32;;;;;;;56.30;28.55;;;;;;;10.67;81.30;98015.26;1738838;81;21163;-70
2021/05/15 02:34:58;;;;;;;57.05;30.05;;;;;;;10.55;81.59;98021.27;1738262;81;21008;-71
2021/05/15 02:37:24;;;;;;;67.05;31.40;;;;;;;10.46;81.86;98016.97;1746607;81;21016;-71
2021/05/15 02:39:50;;;;;;;59.95;29.55;;;;;;;10.35;82.01;98016.53;1743691;81;21557;-70
2021/05/15 02:42:16;;;;;;;64.15;31.07;;;;;;;10.27;82.18;98016.47;1744092;81;21031;-70
2021/05/15 02:44:42;;;;;;;71.62;32.85;;;;;;;10.18;82.35;98016.97;1739967;81;21046;-70
2021/05/15 02:47:07;;;;;;;76.85;32.88;;;;;;;10.12;82.60;98019.17;1747573;81;21167;-70
2021/05/15 02:49:33;;;;;;;81.35;34.83;;;;;;;10.09;82.84;98021.36;1741333;81;21127;-70
2021/05/15 02:51:59;;;;;;;81.80;35.28;;;;;;;10.05;82.98;98027.44;1741374;81;21080;-73
2021/05/15 02:54:25;;;;;;;85.12;34.73;;;;;;;10.00;83.15;98034.08;1744738;81;21616;-69
2021/05/15 02:56:50;;;;;;;92.72;34.70;;;;;;;9.94;83.26;98031.06;1744777;81;21047;-69
2021/05/15 02:59:16;;;;;;;83.45;34.92;;;;;;;9.91;83.40;98035.19;1754218;81;21155;-72
2021/05/15 03:01:42;;;;;;;99.37;36.63;;;;;;;9.86;83.57;98037.76;1734062;81;21053;-71
2021/05/15 03:04:08;;;;;;;79.12;35.00;;;;;;;9.84;83.71;98036.63;1722122;82;21060;-70
2021/05/15 03:06:33;;;;;;;88.35;35.40;;;;;;;9.82;83.83;98038.97;1722678;82;21913;-71
2021/05/15 03:08:59;;;;;;;104.92;36.88;;;;;;;9.80;83.91;98044.05;1721576;82;21135;-70
2021/05/15 03:11:25;;;;;;;98.05;36.33;;;;;;;9.78;84.01;98041.73;1717870;82;21024;-72
2021/05/15 03:13:50;;;;;;;86.05;36.42;;;;;;;9.76;84.07;98048.91;1729234;81;21103;-72
2021/05/15 03:16:16;;;;;;;89.72;35.35;;;;;;;9.76;84.16;98049.50;1734276;81;21621;-70
2021/05/15 03:18:42;;;;;;;103.58;36.93;;;;;;;9.74;84.21;98047.81;1733641;81;21481;-69
2021/05/15 03:21:08;;;;;;;99.42;36.23;;;;;;;9.75;84.26;98053.41;1728958;81;21138;-70
2021/05/15 03:23:33;;;;;;;98.92;35.75;;;;;;;9.74;84.29;98049.93;1716781;82;21111;-70
2021/05/15 03:25:59;;;;;;;99.28;36.63;;;;;;;9.75;84.37;98053.41;1710554;82;21044;-69
2021/05/15 03:28:25;;;;;;;99.32;37.08;;;;;;;9.77;84.46;98059.20;1731459;82;21096;-70
2021/05/15 03:30:51;;;;;;;98.35;36.25;;;;;;;9.80;84.54;98054.91;1715696;82;21557;-72
2021/05/15 03:33:17;;;;;;;79.03;34.43;;;;;;;9.84;84.60;98055.61;1718761;82;21605;-69
2021/05/15 03:35:42;;;;;;;89.30;34.00;;;;;;;9.89;84.69;98060.58;1723735;82;21072;-69
2021/05/15 03:38:09;;;;;;;80.77;34.20;;;;;;;9.93;84.73;98060.73;1725814;82;21108;-70
2021/05/15 03:40:36;;;;;;;87.73;34.67;;;;;;;9.99;84.79;98066.46;1733178;82;21068;-70
2021/05/15 03:43:02;;;;;;;107.47;36.35;;;;;;;10.07;84.81;98064.42;1714255;82;21119;-72
2021/05/15 03:45:28;;;;;;;100.80;35.30;;;;;;;10.14;84.84;98059.64;1719976;82;21104;-70
2021/05/15 03:47:54;;;;;;;86.75;34.15;;;;;;;10.20;84.83;98058.59;1723949;82;21032;-72
2021/05/15 03:50:22;;;;;;;90.87;35.55;;;;;;;10.27;84.87;98061.24;1716863;82;21036;-70
2021/05/15 03:52:49;;;;;;;96.12;36.58;;;;;;;10.39;84.96;98062.05;1704331;82;21099;-72
2021/05/15 03:55:14;;;;;;;85.83;36.58;;;;;;;10.55;85.14;98066.06;1722214;82;21660;-71
2021/05/15 03:57:40;;;;;;;85.35;34.92;;;;;;;10.76;85.24;98067.67;1719373;82;21036;-70
2021/05/15 04:00:09;;;;;;;64.97;33.33;;;;;;;10.95;85.15;98068.31;1719210;82;21750;-70
2021/05/15 04:02:36;;;;;;;62.48;32.13;;;;;;;11.16;85.07;98079.41;1734340;81;21028;-70
2021/05/15 04:05:02;;;;;;;55.67;29.85;;;;;;;11.33;84.99;98077.54;1743640;81;21104;-70
2021/05/15 04:07:28;;;;;;;46.00;27.50;;;;;;;11.44;84.71;98079.46;1745400;81;21026;-69
2021/05/15 04:09:54;;;;;;;44.90;26.97;;;;;;;11.53;84.55;98080.27;1741468;81;21143;-70
2021/05/15 04:12:20;;;;;;;40.80;25.27;;;;;;;11.61;84.37;98084.97;1742744;81;21092;-71
2021/05/15 04:14:50;;;;;;;31.68;21.95;;;;;;;11.67;84.20;98088.73;1747453;81;21098;-70
2021/05/15 04:17:18;;;;;;;33.55;23.83;;;;;;;11.69;83.89;98093.92;1741386;81;21098;-70
2021/05/15 04:19:41;;;;;;;34.10;23.45;;;;;;;11.71;83.63;98094.88;1742305;81;21132;-72
2021/05/15 04:22:07;;;;;;;36.48;24.43;;;;;;;11.79;83.71;98093.55;1747215;81;21044;-70
2021/05/15 04:24:33;;;;;;;28.25;20.92;;;;;;;11.92;83.77;98090.97;1741477;81;21091;-73
2021/05/15 04:26:59;;;;;;;27.98;20.57;;;;;;;12.04;83.47;98091.70;1742009;81;21039;-70
2021/05/15 04:29:26;;;;;;;23.15;18.87;;;;;;;12.16;83.10;98090.27;1744003;81;21765;-72
2021/05/15 04:31:54;;;;;;;23.22;18.90;;;;;;;12.29;82.61;98090.39;1731393;81;21727;-71
2021/05/15 04:34:20;;;;;;;21.17;17.87;;;;;;;12.42;82.27;98099.44;1740725;81;21107;-70
2021/05/15 04:36:45;;;;;;;22.22;17.32;;;;;;;12.53;81.61;98095.87;1734091;81;21046;-73
2021/05/15 04:39:11;;;;;;;21.40;17.67;;;;;;;12.68;81.28;98099.61;1746926;81;21126;-71
2021/05/15 04:41:37;;;;;;;20.23;16.30;;;;;;;12.83;80.91;98104.91;1737904;81;21000;-72
2021/05/15 04:44:03;;;;;;;20.35;15.63;;;;;;;12.97;80.24;98103.78;1749869;81;21066;-72
2021/05/15 04:46:29;;;;;;;18.25;14.05;;;;;;;13.12;79.75;98095.40;1746287;81;21596;-70
2021/05/15 04:48:55;;;;;;;18.40;14.63;;;;;;;13.31;79.03;98106.84;1750348;81;21112;-71
2021/05/15 04:51:20;;;;;;;17.67;14.00;;;;;;;13.50;78.82;98105.74;1739607;81;21055;-69
2021/05/15 04:53:46;;;;;;;14.00;11.68;;;;;;;13.69;78.28;98108.16;1731557;82;21368;-70
2021/05/15 04:56:14;;;;;;;14.35;12.33;;;;;;;13.85;76.94;98103.99;1744561;81;21120;-70
2021/05/15 04:58:39;;;;;;;14.15;12.20;;;;;;;14.03;76.36;98101.38;1751021;81;21115;-70
2021/05/15 05:01:05;;;;;;;12.82;10.88;;;;;;;14.18;75.99;98106.56;1743168;81;21079;-71
2021/05/15 05:03:31;;;;;;;12.85;9.68;;;;;;;14.37;75.28;98106.20;1738881;81;21132;-72
2021/05/15 05:05:57;;;;;;;11.35;9.13;;;;;;;14.53;74.33;98112.19;1741486;81;21214;-70
2021/05/15 05:08:25;;;;;;;9.48;8.33;;;;;;;14.61;73.20;98110.76;1739769;81;21075;-70
2021/05/15 05:10:51;;;;;;;11.35;9.08;;;;;;;14.67;72.90;98119.17;1738558;81;22147;-70
2021/05/15 05:13:17;;;;;;;10.00;9.00;;;;;;;14.81;72.75;98122.81;1737655;81;21015;-70
2021/05/15 05:15:43;;;;;;;9.70;8.28;;;;;;;14.99;72.46;98127.11;1743013;81;21130;-69
2021/05/15 05:18:08;;;;;;;11.08;8.38;;;;;;;15.17;71.40;98127.11;1736811;81;21079;-70
2021/05/15 05:20:34;;;;;;;9.75;7.97;;;;;;;15.35;70.98;98128.66;1737594;81;21238;-69
2021/05/15 05:23:00;;;;;;;8.58;7.45;;;;;;;15.49;70.30;98127.41;1742377;81;21083;-70
2021/05/15 05:25:26;;;;;;;9.80;8.03;;;;;;;15.62;69.44;98128.11;1751216;81;22215;-70
2021/05/15 05:27:52;;;;;;;7.75;5.42;;;;;;;15.75;69.26;98135.70;1744147;81;21035;-69
2021/05/15 05:33:06;;;;;;;4.95;4.45;;;;;;;15.89;67.03;98137.77;1705583;83;21086;-69
2021/05/15 05:35:34;;;;;;;5.80;4.00;;;;;;;15.95;66.16;98135.98;1706791;83;21697;-70
2021/05/15 05:38:01;;;;;;;4.25;3.83;;;;;;;15.99;64.76;98135.25;1700085;84;21564;-69
2021/05/15 05:40:27;;;;;;;4.95;4.03;;;;;;;15.94;63.32;98139.94;1704847;84;21430;-70
2021/05/15 05:42:53;;;;;;;5.17;4.00;;;;;;;15.92;64.41;98133.53;1705133;84;21024;-70
2021/05/15 05:45:18;;;;;;;4.37;3.98;;;;;;;16.07;63.68;98139.27;1670786;85;21458;-71
2021/05/15 05:47:44;;;;;;;4.30;3.40;;;;;;;16.06;62.55;98132.23;1703683;84;21103;-70
2021/05/15 05:50:10;;;;;;;4.00;3.60;;;;;;;16.09;63.18;98140.92;1669652;86;21027;-71
2021/05/15 05:52:37;;;;;;;4.80;3.40;;;;;;;16.09;63.18;98140.92;1684093;85;21103;-71
2021/05/15 05:55:04;;;;;;;5.22;3.60;;;;;;;16.14;62.14;98145.06;1688467;84;21069;-71
2021/05/15 05:57:29;;;;;;;4.40;3.27;;;;;;;16.13;61.50;98149.79;1690671;85;21687;-73
2021/05/15 05:59:55;;;;;;;5.17;2.95;;;;;;;16.08;61.20;98146.87;1704564;84;21024;-70
2021/05/15 06:02:21;;;;;;;4.80;3.30;;;;;;;16.06;60.77;98154.15;1662002;86;21731;-75
2021/05/15 06:04:47;;;;;;;3.45;3.15;;;;;;;16.08;60.52;98157.21;1704661;83;21049;-72
2021/05/15 06:07:13;;;;;;;4.20;2.98;;;;;;;16.08;60.65;98155.84;1665320;86;21392;-71
2021/05/15 06:09:40;;;;;;;4.97;2.90;;;;;;;16.15;60.41;98146.59;1678399;84;21711;-71
2021/05/15 06:12:07;;;;;;;3.85;2.70;;;;;;;16.26;59.56;98157.16;1670559;84;21120;-70
2021/05/15 06:14:34;;;;;;;3.17;2.33;;;;;;;16.36;59.44;98164.22;1671066;84;21431;-71
2021/05/15 06:16:59;;;;;;;3.95;2.90;;;;;;;16.48;58.59;98170.23;1681771;84;21573;-71
2021/05/15 06:19:25;;;;;;;5.62;2.87;;;;;;;16.55;58.15;98165.06;1695941;83;21052;-69
2021/05/15 06:21:51;;;;;;;4.62;3.20;;;;;;;16.50;58.14;98166.41;1701126;83;21734;-70
2021/05/15 06:24:17;;;;;;;4.33;3.50;;;;;;;16.62;58.20;98175.16;1677651;84;21048;-70
2021/05/15 06:26:43;;;;;;;4.47;3.35;;;;;;;16.60;57.97;98176.20;1715023;82;21183;-71
2021/05/15 06:29:09;;;;;;;3.72;2.87;;;;;;;16.56;58.26;98171.48;1714610;82;21074;-70
2021/05/15 06:31:36;;;;;;;3.87;3.10;;;;;;;16.35;57.58;98159.34;1715180;82;21135;-71
2021/05/15 06:34:02;;;;;;;4.50;3.17;;;;;;;16.82;57.75;98189.88;1718120;82;21091;-70
2021/05/15 06:36:28;;;;;;;5.25;3.37;;;;;;;17.08;57.85;98184.19;1717872;82;21103;-70
2021/05/15 06:38:54;;;;;;;3.95;2.92;;;;;;;17.22;57.39;98184.22;1716937;82;22142;-70
2021/05/15 06:41:20;;;;;;;4.35;3.50;;;;;;;17.26;57.03;98182.84;1720127;82;21111;-70
2021/05/15 06:43:47;;;;;;;4.67;3.22;;;;;;;17.25;56.77;98190.16;1715788;82;21091;-71
2021/05/15 06:46:13;;;;;;;4.33;2.90;;;;;;;17.14;56.78;98188.47;1709351;83;21576;-70
2021/05/15 06:48:39;;;;;;;4.00;3.20;;;;;;;17.13;56.75;98188.30;1705904;83;21127;-71
2021/05/15 06:51:05;;;;;;;4.47;3.52;;;;;;;17.04;56.06;98198.03;1703709;83;21210;-70
2021/05/15 06:53:33;;;;;;;4.92;3.72;;;;;;;16.96;56.12;98195.41;1666335;83;21100;-73
2021/05/15 06:55:59;;;;;;;4.70;3.67;;;;;;;16.94;56.82;98201.19;1703190;83;21116;-70
2021/05/15 06:58:26;;;;;;;4.25;3.70;;;;;;;17.11;56.38;98194.87;1660633;83;21068;-69
2021/05/15 07:00:51;;;;;;;6.35;4.28;;;;;;;17.27;56.29;98195.97;1700213;83;21043;-70
2021/05/15 07:03:17;;;;;;;6.42;4.83;;;;;;;17.50;55.93;98201.48;1708174;83;21028;-72
2021/05/15 07:05:43;;;;;;;6.72;4.90;;;;;;;17.46;55.75;98193.99;1712493;83;21047;-72
2021/05/15 07:08:10;;;;;;;6.08;4.50;;;;;;;17.44;55.74;98198.58;1715846;83;21675;-71
2021/05/15 07:10:36;;;;;;;6.62;5.30;;;;;;;17.46;56.16;98200.85;1714827;83;21067;-71
2021/05/15 07:13:02;;;;;;;7.10;5.53;;;;;;;17.60;55.97;98194.03;1718362;83;21440;-71
2021/05/15 07:15:28;;;;;;;6.70;5.30;;;;;;;17.65;57.09;98204.38;1718381;83;21107;-70
2021/05/15 07:17:54;;;;;;;6.67;5.35;;;;;;;17.75;55.88;98199.05;1676813;83;21365;-72
2021/05/15 07:20:20;;;;;;;6.60;4.72;;;;;;;17.91;55.67;98201.52;1683843;83;21604;-73
2021/05/15 07:22:46;;;;;;;7.33;5.17;;;;;;;18.21;54.32;98206.55;1707183;83;21143;-71
2021/05/15 07:25:12;;;;;;;6.90;4.87;;;;;;;18.57;54.32;98207.06;1706425;83;21040;-72
2021/05/15 07:27:38;;;;;;;6.92;5.05;;;;;;;18.82;54.27;98202.59;1708825;83;21768;-70
2021/05/15 07:30:05;;;;;;;6.95;5.78;;;;;;;18.71;53.79;98189.89;1704800;83;21544;-72
2021/05/15 07:32:31;;;;;;;6.00;5.40;;;;;;;18.71;53.03;98202.27;1690457;83;21140;-70
2021/05/15 07:34:58;;;;;;;8.48;5.28;;;;;;;18.81;53.66;98194.16;1707381;83;21095;-70
2021/05/15 07:37:24;;;;;;;5.90;5.30;;;;;;;19.10;53.52;98200.30;1703675;83;21597;-70
2021/05/15 07:39:50;;;;;;;6.33;5.00;;;;;;;19.35;53.30;98193.59;1691344;85;22058;-71
2021/05/15 07:42:17;;;;;;;7.47;5.20;;;;;;;19.56;52.72;98193.91;1703078;84;21096;-71
2021/05/15 07:44:42;;;;;;;6.60;5.10;;;;;;;19.51;52.20;98191.80;1703316;84;21561;-70
2021/05/15 07:47:08;;;;;;;5.50;5.00;;;;;;;19.37;51.61;98187.77;1703135;84;21085;-71
2021/05/15 07:49:35;;;;;;;5.20;4.70;;;;;;;19.49;52.44;98193.64;1704020;84;21708;-71
2021/05/15 07:52:00;;;;;;;6.20;5.22;;;;;;;19.49;52.44;98193.64;1703811;84;21535;-70
2021/05/15 07:54:26;;;;;;;6.33;5.03;;;;;;;19.82;52.36;98189.30;1704078;84;21105;-72
2021/05/15 07:56:54;;;;;;;6.20;4.80;;;;;;;19.82;52.36;98189.30;1704313;84;21085;-72
2021/05/15 07:59:20;;;;;;;5.25;4.65;;;;;;;20.00;51.01;98196.03;1702795;84;21057;-70
2021/05/15 08:01:46;;;;;;;5.50;4.57;;;;;;;19.83;50.15;98203.20;1676475;84;21099;-71
2021/05/15 08:04:12;;;;;;;6.50;4.47;;;;;;;19.56;50.23;98195.29;1703987;84;21036;-70
2021/05/15 08:06:38;;;;;;;4.45;3.80;;;;;;;19.56;50.27;98193.13;1703464;84;21088;-70
2021/05/15 08:09:07;;;;;;;5.62;5.03;;;;;;;19.78;50.78;98197.75;1703652;83;21017;-70
2021/05/15 08:11:35;;;;;;;4.28;3.40;;;;;;;19.78;50.77;98203.85;1697977;84;21099;-70
2021/05/15 08:14:00;;;;;;;;;;;;;;;19.66;49.34;98199.51;1704914;83;21037;-70
2021/05/15 08:16:26;;;;;;;4.97;3.85;;;;;;;19.70;49.32;98197.97;1703659;84;20161;-70
2021/05/15 08:18:52;;;;;;;5.87;4.15;;;;;;;19.79;49.54;98194.37;1703749;84;21149;-72
2021/05/15 08:21:18;;;;;;;5.85;4.10;;;;;;;19.63;48.80;98194.91;1703920;84;21021;-72
2021/05/15 08:23:44;;;;;;;4.28;3.83;;;;;;;19.38;49.18;98198.92;1703735;84;21017;-75
2021/05/15 08:26:10;;;;;;;4.60;4.03;;;;;;;19.34;49.00;98205.82;1704035;84;21029;-72
2021/05/15 08:28:41;;;;;;;6.12;3.87;;;;;;;19.22;50.08;98200.08;1700676;84;21105;-73
2021/05/15 08:31:05;;;;;;;4.72;4.10;;;;;;;19.39;49.62;98198.30;1699992;82;21605;-76
2021/05/15 08:33:31;;;;;;;5.30;3.77;;;;;;;19.59;50.44;98196.31;1712394;82;21111;-74
2021/05/15 08:35:56;;;;;;;4.37;3.70;;;;;;;19.68;49.32;98202.56;1716132;83;22045;-72
2021/05/15 08:38:22;;;;;;;4.60;3.85;;;;;;;19.51;48.07;98199.44;1717403;83;21106;-76
2021/05/15 08:40:48;;;;;;;4.75;3.42;;;;;;;19.34;48.25;98202.45;1723646;82;21076;-74
2021/05/15 08:43:15;;;;;;;5.42;3.83;;;;;;;19.29;48.31;98199.74;1715479;83;21087;-73
2021/05/15 08:45:41;;;;;;;4.65;3.67;;;;;;;19.60;49.61;98200.61;1715608;83;21075;-72
2021/05/15 08:48:10;;;;;;;4.60;3.85;;;;;;;20.02;48.99;98195.55;1719019;83;22362;-73
2021/05/15 08:50:35;;;;;;;6.08;3.90;;;;;;;20.32;48.34;98197.70;1716201;83;21078;-72
2021/05/15 08:53:01;;;;;;;4.75;3.80;;;;;;;20.46;47.05;98203.07;1707905;82;21726;-73
2021/05/15 08:55:29;;;;;;;6.67;4.33;;;;;;;20.50;46.84;98211.30;1686503;85;21799;-73
2021/05/15 08:57:55;;;;;;;4.47;3.70;;;;;;;20.56;47.15;98211.42;1692748;83;21091;-74
2021/05/15 09:00:24;;;;;;;5.10;3.60;;;;;;;20.48;46.95;98215.77;1689140;85;21019;-74
2021/05/15 09:02:52;;;;;;;4.53;3.52;;;;;;;20.59;47.40;98219.50;1688853;83;21104;-72
2021/05/15 09:05:18;;;;;;;4.22;3.67;;;;;;;20.74;47.44;98215.98;1689199;85;21020;-72
2021/05/15 09:07:46;;;;;;;4.80;4.00;;;;;;;20.83;46.86;98215.87;1694414;84;21185;-72
2021/05/15 09:10:12;;;;;;;4.78;4.20;;;;;;;20.95;46.17;98217.58;1721528;83;21025;-72
2021/05/15 09:12:38;;;;;;;4.55;3.90;;;;;;;21.28;45.62;98210.37;1714787;83;21064;-72
2021/05/15 09:15:05;;;;;;;4.00;3.60;;;;;;;21.72;45.83;98215.60;1692848;85;21089;-74
2021/05/15 09:17:47;;;;;;;4.60;4.00;;;;;;;22.05;44.78;98207.55;1687452;84;21091;-72
2021/05/15 09:20:27;;;;;;;4.35;3.58;;;;;;;22.04;43.54;98214.30;1669859;86;21043;-74
2021/05/15 09:22:52;;;;;;;5.35;3.80;;;;;;;21.90;44.06;98216.67;1684084;83;21080;-70
2021/05/15 09:25:19;;;;;;;4.95;3.72;;;;;;;22.12;44.08;98217.53;1722003;83;21890;-70
2021/05/15 09:27:44;;;;;;;5.03;3.50;;;;;;;22.30;44.72;98218.50;1685369;83;21123;-71
2021/05/15 09:30:11;;;;;;;5.45;3.87;;;;;;;22.21;44.19;98220.81;1692904;85;21000;-73
2021/05/15 09:32:37;;;;;;;5.58;4.10;;;;;;;22.12;44.54;98220.92;1682491;83;21048;-74
2021/05/15 09:35:05;;;;;;;4.30;3.90;;;;;;;22.22;44.46;98221.56;1722053;83;21112;-72
2021/05/15 09:37:37;;;;;;;4.92;4.05;;;;;;;22.16;43.65;98217.34;1684465;83;21064;-73
2021/05/15 09:40:29;;;;;;;4.92;3.55;;;;;;;22.15;43.87;98201.97;1705675;83;21013;-74
2021/05/15 09:42:55;;;;;;;4.00;3.70;;;;;;;22.58;44.17;98220.13;1703605;84;21060;-76
2021/05/15 09:45:26;;;;;;;4.08;3.10;;;;;;;22.79;43.51;98222.94;1702516;82;21481;-74
2021/05/15 09:48:02;;;;;;;4.22;3.50;;;;;;;22.82;43.38;98221.20;1697464;82;21037;-73
2021/05/15 09:50:32;;;;;;;3.55;3.20;;;;;;;22.94;42.32;98227.56;1700584;84;21163;-76
2021/05/15 09:53:10;;;;;;;4.33;3.55;;;;;;;22.88;42.41;98219.86;1701383;83;21716;-73
2021/05/15 09:55:37;;;;;;;4.70;3.52;;;;;;;23.34;42.72;98221.05;1703453;83;21088;-75
2021/05/15 09:58:04;;;;;;;3.87;3.42;;;;;;;23.83;41.39;98217.64;1709637;83;21050;-71
2021/05/15 10:00:45;;;;;;;5.67;3.62;;;;;;;23.97;41.59;98225.62;1703138;83;21013;-72
2021/05/15 10:03:20;;;;;;;4.83;4.28;;;;;;;24.01;41.36;98224.77;1697390;83;21523;-74
2021/05/15 10:06:01;;;;;;;4.00;3.12;;;;;;;24.01;40.99;98222.59;1671413;84;21022;-72
2021/05/15 10:08:27;;;;;;;4.60;3.20;;;;;;;23.91;41.62;98225.60;1660129;85;21079;-74
2021/05/15 10:10:53;;;;;;;4.00;3.60;;;;;;;23.74;40.88;98222.03;1693715;83;21104;-72
2021/05/15 10:13:20;;;;;;;4.28;3.50;;;;;;;23.42;40.13;98230.41;1692785;83;21082;-72
2021/05/15 10:15:46;;;;;;;4.25;3.77;;;;;;;22.82;40.28;98234.41;1675654;85;21163;-72
2021/05/15 10:18:13;;;;;;;4.03;3.22;;;;;;;22.58;41.70;98231.19;1725094;82;21056;-73
2021/05/15 10:20:39;;;;;;;4.67;3.30;;;;;;;22.64;42.36;98229.86;1719554;83;21085;-72
2021/05/15 10:23:17;;;;;;;3.70;3.37;;;;;;;22.86;41.97;98223.10;1704873;83;21060;-72
2021/05/15 10:25:43;;;;;;;4.25;3.22;;;;;;;22.86;40.25;98220.34;1703870;83;21009;-72
2021/05/15 10:28:09;;;;;;;4.10;3.30;;;;;;;22.78;41.01;98222.81;1707354;83;21037;-73
2021/05/15 10:30:35;;;;;;;3.60;3.30;;;;;;;22.86;41.62;98212.03;1702663;83;21014;-73
2021/05/15 10:33:04;;;;;;;4.40;3.20;;;;;;;23.03;41.20;98212.20;1707763;83;21081;-73
2021/05/15 10:35:32;;;;;;;3.70;3.40;;;;;;;23.02;41.88;98212.80;1693320;83;21052;-71
2021/05/15 10:38:07;;;;;;;4.58;3.58;;;;;;;23.29;41.68;98210.70;1720501;83;21071;-73
2021/05/15 10:40:50;;;;;;;3.72;3.30;;;;;;;23.56;41.88;98207.93;1715775;83;21573;-72
2021/05/15 10:43:32;;;;;;;3.33;3.02;;;;;;;23.78;41.44;98204.52;1722502;82;21146;-73
2021/05/15 10:45:58;;;;;;;5.00;3.90;;;;;;;23.95;41.23;98202.41;1725229;83;21424;-72
2021/05/15 10:48:27;;;;;;;3.77;3.37;;;;;;;23.95;40.12;98198.25;1722968;82;21048;-72
2021/05/15 10:50:59;;;;;;;5.45;3.35;;;;;;;23.84;40.78;98194.19;1725221;82;21040;-71
2021/05/15 10:53:29;;;;;;;3.80;3.40;;;;;;;23.92;41.40;98193.08;1726764;82;21045;-71
2021/05/15 10:56:12;;;;;;;4.53;3.47;;;;;;;24.15;41.55;98199.45;1717009;83;21565;-72
2021/05/15 10:58:46;;;;;;;5.05;3.60;;;;;;;24.44;40.66;98202.39;1704036;82;21169;-73
2021/05/15 11:01:18;;;;;;;3.77;3.02;;;;;;;24.91;40.42;98191.53;1680029;84;21026;-72
2021/05/15 11:03:44;;;;;;;4.80;4.40;;;;;;;25.29;40.35;98187.81;1679905;84;21049;-71
2021/05/15 11:06:23;;;;;;;4.87;3.47;;;;;;;25.34;38.56;98188.41;1677196;84;21236;-71
2021/05/15 11:09:05;;;;;;;3.50;3.10;;;;;;;25.32;38.96;98188.79;1705898;82;21075;-71
2021/05/15 11:11:40;;;;;;;3.20;2.90;;;;;;;25.18;37.53;98184.44;1703985;84;21079;-71
2021/05/15 11:14:27;;;;;;;4.60;3.33;;;;;;;24.51;38.98;98183.10;1704002;82;21114;-71
2021/05/15 11:17:16;;;;;;;5.42;3.35;;;;;;;23.86;39.82;98182.61;1703964;84;21020;-71
2021/05/15 11:20:06;;;;;;;5.08;3.75;;;;;;;23.52;39.84;98179.70;1704152;82;21067;-71
2021/05/15 11:22:38;;;;;;;4.58;3.70;;;;;;;23.23;40.06;98176.04;1704047;83;21998;-70
2021/05/15 11:25:17;;;;;;;5.15;3.75;;;;;;;22.82;41.47;98174.89;1704291;84;21049;-70
2021/05/15 11:28:02;;;;;;;5.90;4.55;;;;;;;22.54;41.90;98183.62;1704003;81;21059;-70
2021/05/15 11:30:43;;;;;;;4.30;3.60;;;;;;;22.12;42.87;98182.96;1669533;85;21990;-71
2021/05/15 11:33:11;;;;;;;4.00;3.60;;;;;;;21.89;43.01;98175.08;1702836;83;21095;-70